Terminal Aerodrome Forecast
Issued by NWS

Home | Current Version | Previous Version | Graphics & Text | Print | Product List | Glossary On
Versions: 1 2 3 4 5 6 7 8 9 10 11 12 13 14 15 16 17 18 19 20 21 22 23 24
000
FTUS43 KBIS 301300 AAA
TAFDIK
TAF AMD
KDIK 301307Z 3013/0112 09010KT 6SM -RA BR OVC002
      TEMPO 3013/3016 4SM TSRA BKN004 OVC012CB
     FM301600 08012KT 4SM -SHRA VCTS OVC008CB
     FM010000 01010KT 5SM -SHRA BKN008 OVC012
     FM010500 25015G25KT P6SM BKN010 OVC020=

USA.gov is the U.S. government's official web portal to all federal, state and local government web resources and services.